Time,TemperatureF,DewpointF,PressureIn,WindDirection,WindDirectionDegrees,WindSpeedMPH,WindSpeedGustMPH,Humidity,HourlyPrecipIn,Conditions,Clouds,dailyrainin,SolarRadiationWatts/m^2,SoftwareType,DateUTC
2013-04-16 00:02:00,73.2,66.4,-100.00,SW,225,2.0,2.0,79,0.00,,,0.00,995.0,meteohub,2013-04-16 10:02:00,
2013-04-16 00:07:00,73.0,66.6,-100.00,SW,225,2.0,2.0,80,0.00,,,0.00,995.0,meteohub,2013-04-16 10:07:00,
2013-04-16 00:12:00,72.5,66.4,-100.00,SW,225,2.0,2.0,81,0.00,,,0.00,995.0,meteohub,2013-04-16 10:12:00,
2013-04-16 00:17:00,72.1,66.0,-100.00,SW,225,2.0,2.0,81,0.00,,,0.00,995.0,meteohub,2013-04-16 10:17:00,
2013-04-16 00:22:00,71.8,66.0,-100.00,SW,225,1.0,2.0,82,0.00,,,0.00,995.0,meteohub,2013-04-16 10:22:00,
2013-04-16 00:27:00,71.4,65.7,-100.00,SW,225,2.0,2.0,82,0.00,,,0.00,995.0,meteohub,2013-04-16 10:27:00,
2013-04-16 00:32:00,70.9,65.5,-100.00,SW,225,1.0,2.0,83,0.00,,,0.00,995.0,meteohub,2013-04-16 10:32:00,
2013-04-16 00:37:00,70.3,65.3,-100.00,SW,225,1.0,2.0,84,0.00,,,0.00,995.0,meteohub,2013-04-16 10:37:00,
2013-04-16 00:42:00,70.0,65.3,-100.00,SW,225,2.0,2.0,85,0.00,,,0.00,995.0,meteohub,2013-04-16 10:42:00,
2013-04-16 00:47:00,69.6,64.9,-100.00,SW,225,2.0,2.0,85,0.00,,,0.00,995.0,meteohub,2013-04-16 10:47:00,
2013-04-16 00:52:00,69.6,65.3,-100.00,SW,225,2.0,2.0,86,0.00,,,0.00,995.0,meteohub,2013-04-16 10:52:00,
2013-04-16 00:57:00,69.8,65.5,-100.00,West,270,2.0,2.0,86,0.00,,,0.00,995.0,meteohub,2013-04-16 10:57:00,
2013-04-16 01:02:00,69.6,65.3,-100.00,West,270,2.0,3.0,86,0.00,,,0.00,995.0,meteohub,2013-04-16 11:02:00,
2013-04-16 01:07:00,69.4,65.1,-100.00,West,270,2.0,3.0,86,0.00,,,0.00,995.0,meteohub,2013-04-16 11:07:00,
2013-04-16 01:12:00,69.4,65.1,-100.00,West,270,1.0,3.0,86,0.00,,,0.00,995.0,meteohub,2013-04-16 11:12:00,
2013-04-16 01:17:00,69.3,64.9,-100.00,West,270,2.0,2.0,86,0.00,,,0.00,995.0,meteohub,2013-04-16 11:17:00,
2013-04-16 01:22:00,69.4,65.1,-100.00,SW,225,2.0,2.0,86,0.00,,,0.00,995.0,meteohub,2013-04-16 11:22:00,
2013-04-16 01:27:00,69.8,65.5,-100.00,SW,225,2.0,3.0,86,0.00,,,0.00,995.0,meteohub,2013-04-16 11:27:00,
2013-04-16 01:32:00,69.8,65.5,-100.00,SW,225,2.0,3.0,86,0.00,,,0.00,995.0,meteohub,2013-04-16 11:32:00,
2013-04-16 01:37:00,69.8,65.5,-100.00,SW,225,1.0,3.0,86,0.00,,,0.00,995.0,meteohub,2013-04-16 11:37:00,
2013-04-16 01:42:00,69.8,65.8,-100.00,SW,225,2.0,2.0,87,0.00,,,0.00,995.0,meteohub,2013-04-16 11:42:00,
2013-04-16 01:47:00,69.8,65.8,-100.00,SW,225,2.0,2.0,87,0.00,,,0.00,995.0,meteohub,2013-04-16 11:47:00,
2013-04-16 01:53:00,69.6,65.8,-100.00,SW,225,2.0,2.0,88,0.00,,,0.00,995.0,meteohub,2013-04-16 11:53:00,
2013-04-16 01:58:00,69.6,65.8,-100.00,SW,225,1.0,2.0,88,0.00,,,0.00,995.0,meteohub,2013-04-16 11:58:00,
2013-04-16 02:03:00,69.8,66.0,-100.00,SW,225,1.0,2.0,88,0.00,,,0.00,995.0,meteohub,2013-04-16 12:03:00,
2013-04-16 02:08:00,69.8,66.4,-100.00,SW,225,0.0,2.0,89,0.00,,,0.00,995.0,meteohub,2013-04-16 12:08:00,
2013-04-16 02:13:00,70.0,66.6,-100.00,SW,225,1.0,2.0,89,0.00,,,0.00,995.0,meteohub,2013-04-16 12:13:00,
2013-04-16 02:18:00,70.0,66.6,-100.00,SW,225,1.0,2.0,89,0.00,,,0.00,995.0,meteohub,2013-04-16 12:18:00,
2013-04-16 02:23:00,70.0,66.2,-100.00,SW,225,1.0,2.0,88,0.00,,,0.00,995.0,meteohub,2013-04-16 12:23:00,
2013-04-16 02:28:00,70.0,66.2,-100.00,SW,225,1.0,2.0,88,0.00,,,0.00,995.0,meteohub,2013-04-16 12:28:00,
2013-04-16 02:34:00,70.0,66.2,-100.00,SW,225,0.0,2.0,88,0.00,,,0.00,995.0,meteohub,2013-04-16 12:34:00,
2013-04-16 02:39:00,70.0,66.2,-100.00,SW,225,1.0,2.0,88,0.00,,,0.00,995.0,meteohub,2013-04-16 12:39:00,
2013-04-16 02:44:00,70.0,66.0,-100.00,West,270,1.0,2.0,87,0.00,,,0.00,995.0,meteohub,2013-04-16 12:44:00,
2013-04-16 02:49:00,69.8,65.8,-100.00,West,270,2.0,2.0,87,0.00,,,0.00,995.0,meteohub,2013-04-16 12:49:00,
2013-04-16 02:54:00,69.8,65.8,-100.00,West,270,1.0,2.0,87,0.00,,,0.00,995.0,meteohub,2013-04-16 12:54:00,
2013-04-16 02:59:00,69.6,65.7,-100.00,SW,225,1.0,2.0,87,0.00,,,0.00,995.0,meteohub,2013-04-16 12:59:00,
2013-04-16 03:04:00,69.4,65.5,-100.00,SW,225,0.0,2.0,87,0.00,,,0.00,995.0,meteohub,2013-04-16 13:04:00,
2013-04-16 03:10:00,69.4,65.5,-100.00,SW,225,0.0,2.0,87,0.00,,,0.00,995.0,meteohub,2013-04-16 13:10:00,
2013-04-16 03:15:00,69.4,65.5,-100.00,SW,225,0.0,2.0,87,0.00,,,0.00,995.0,meteohub,2013-04-16 13:15:00,
2013-04-16 03:20:00,69.6,65.3,-100.00,SW,225,0.0,0.0,86,0.00,,,0.00,995.0,meteohub,2013-04-16 13:20:00,
2013-04-16 03:25:00,69.6,65.3,-100.00,SW,225,2.0,2.0,86,0.00,,,0.00,995.0,meteohub,2013-04-16 13:25:00,
2013-04-16 03:30:00,69.6,65.3,-100.00,SW,225,2.0,2.0,86,0.00,,,0.00,995.0,meteohub,2013-04-16 13:30:00,
2013-04-16 03:35:00,69.6,64.9,-100.00,SW,225,1.0,2.0,85,0.00,,,0.00,995.0,meteohub,2013-04-16 13:35:00,
2013-04-16 03:41:00,69.6,64.9,-100.00,SW,225,2.0,2.0,85,0.00,,,0.00,995.0,meteohub,2013-04-16 13:41:00,
2013-04-16 03:46:00,69.6,64.9,-100.00,SW,225,2.0,2.0,85,0.00,,,0.00,995.0,meteohub,2013-04-16 13:46:00,
2013-04-16 03:51:00,69.8,65.1,-100.00,SW,225,2.0,3.0,85,0.00,,,0.00,995.0,meteohub,2013-04-16 13:51:00,
2013-04-16 03:56:00,70.3,65.7,-100.00,SW,225,2.0,3.0,85,0.00,,,0.00,995.0,meteohub,2013-04-16 13:56:00,
2013-04-16 04:02:00,70.5,65.8,-100.00,SW,225,2.0,3.0,85,0.00,,,0.00,995.0,meteohub,2013-04-16 14:02:00,
2013-04-16 04:07:00,70.5,65.5,-100.00,SW,225,2.0,2.0,84,0.00,,,0.00,995.0,meteohub,2013-04-16 14:07:00,
2013-04-16 04:12:00,70.7,65.7,-100.00,SW,225,2.0,2.0,84,0.00,,,0.00,995.0,meteohub,2013-04-16 14:12:00,
2013-04-16 04:17:00,70.7,65.3,-100.00,SW,225,2.0,2.0,83,0.00,,,0.00,995.0,meteohub,2013-04-16 14:17:00,
2013-04-16 04:22:00,70.7,65.3,-100.00,SW,225,1.0,2.0,83,0.00,,,0.00,995.0,meteohub,2013-04-16 14:22:00,
2013-04-16 04:27:00,70.5,65.5,-100.00,SW,225,2.0,2.0,84,0.00,,,0.00,995.0,meteohub,2013-04-16 14:27:00,
2013-04-16 04:32:00,70.5,65.5,-100.00,SW,225,2.0,2.0,84,0.00,,,0.00,995.0,meteohub,2013-04-16 14:32:00,
2013-04-16 04:37:00,70.9,65.5,-100.00,SW,225,1.0,2.0,83,0.00,,,0.00,995.0,meteohub,2013-04-16 14:37:00,
2013-04-16 04:42:00,70.9,65.5,-100.00,SW,225,2.0,2.0,83,0.00,,,0.00,995.0,meteohub,2013-04-16 14:42:00,
2013-04-16 04:47:00,70.9,65.5,-100.00,SW,225,2.0,2.0,83,0.00,,,0.00,995.0,meteohub,2013-04-16 14:47:00,
2013-04-16 04:52:00,70.9,65.5,-100.00,SW,225,2.0,2.0,83,0.00,,,0.00,995.0,meteohub,2013-04-16 14:52:00,
2013-04-16 04:57:00,70.7,65.3,-100.00,SW,225,2.0,2.0,83,0.00,,,0.00,995.0,meteohub,2013-04-16 14:57:00,
2013-04-16 05:02:00,70.7,65.3,-100.00,SW,225,2.0,2.0,83,0.00,,,0.00,995.0,meteohub,2013-04-16 15:02:00,
2013-04-16 05:07:00,70.7,65.3,-100.00,SW,225,2.0,2.0,83,0.00,,,0.00,995.0,meteohub,2013-04-16 15:07:00,
2013-04-16 05:12:00,70.9,65.5,-100.00,SW,225,2.0,3.0,83,0.00,,,0.00,995.0,meteohub,2013-04-16 15:12:00,
2013-04-16 05:17:00,70.9,65.5,-100.00,SW,225,2.0,3.0,83,0.00,,,0.00,995.0,meteohub,2013-04-16 15:17:00,
2013-04-16 05:22:00,70.9,65.5,-100.00,SW,225,2.0,3.0,83,0.00,,,0.00,995.0,meteohub,2013-04-16 15:22:00,
2013-04-16 05:27:00,70.9,65.5,-100.00,SW,225,2.0,2.0,83,0.00,,,0.00,995.0,meteohub,2013-04-16 15:27:00,
2013-04-16 05:32:00,70.9,65.5,-100.00,SW,225,2.0,3.0,83,0.00,,,0.00,995.0,meteohub,2013-04-16 15:32:00,
2013-04-16 05:37:00,70.9,65.5,-100.00,SW,225,2.0,3.0,83,0.00,,,0.00,995.0,meteohub,2013-04-16 15:37:00,
2013-04-16 05:42:00,70.7,65.3,-100.00,SW,225,2.0,3.0,83,0.00,,,0.00,995.0,meteohub,2013-04-16 15:42:00,
2013-04-16 05:47:00,70.7,65.3,-100.00,SW,225,2.0,2.0,83,0.00,,,0.00,995.0,meteohub,2013-04-16 15:47:00,
2013-04-16 05:52:00,70.3,64.9,-100.00,SW,225,1.0,2.0,83,0.00,,,0.00,995.0,meteohub,2013-04-16 15:52:00,
2013-04-16 05:57:00,70.2,65.1,-100.00,SW,225,0.0,2.0,84,0.00,,,0.00,995.0,meteohub,2013-04-16 15:57:00,
2013-04-16 06:03:00,70.0,64.9,-100.00,SW,225,0.0,2.0,84,0.00,,,0.00,995.0,meteohub,2013-04-16 16:03:00,
2013-04-16 06:08:00,69.8,64.8,-100.00,SW,225,1.0,2.0,84,0.00,,,0.00,995.0,meteohub,2013-04-16 16:08:00,
2013-04-16 06:13:00,69.8,65.1,-100.00,SW,225,2.0,2.0,85,0.00,,,0.00,995.0,meteohub,2013-04-16 16:13:00,
2013-04-16 06:18:00,69.8,65.1,-100.00,SW,225,2.0,2.0,85,0.00,,,0.00,995.0,meteohub,2013-04-16 16:18:00,
2013-04-16 06:23:00,70.2,65.5,-100.00,SW,225,2.0,2.0,85,0.00,,,0.00,995.0,meteohub,2013-04-16 16:23:00,
2013-04-16 06:28:00,70.3,65.7,-100.00,SW,225,2.0,2.0,85,0.00,,,0.00,995.0,meteohub,2013-04-16 16:28:00,
2013-04-16 06:34:00,70.5,65.8,-100.00,SW,225,1.0,2.0,85,0.00,,,0.00,995.0,meteohub,2013-04-16 16:34:00,
2013-04-16 06:39:00,70.7,66.0,-100.00,SW,225,1.0,2.0,85,0.00,,,0.00,995.0,meteohub,2013-04-16 16:39:00,
2013-04-16 06:44:00,70.9,66.2,-100.00,SW,225,2.0,2.0,85,0.00,,,0.00,995.0,meteohub,2013-04-16 16:44:00,
2013-04-16 06:49:00,71.1,66.4,-100.00,SW,225,0.0,2.0,85,0.00,,,0.00,995.0,meteohub,2013-04-16 16:49:00,
2013-04-16 06:54:00,71.2,66.6,-100.00,SW,225,1.0,2.0,85,0.00,,,0.00,995.0,meteohub,2013-04-16 16:54:00,
2013-04-16 06:59:00,71.4,66.7,-100.00,SW,225,1.0,2.0,85,0.00,,,0.00,995.0,meteohub,2013-04-16 16:59:00,
2013-04-16 07:05:00,71.6,66.9,-100.00,SW,225,0.0,2.0,85,0.00,,,0.00,995.0,meteohub,2013-04-16 17:05:00,
2013-04-16 07:10:00,71.8,67.1,-100.00,SW,225,2.0,2.0,85,0.00,,,0.00,995.0,meteohub,2013-04-16 17:10:00,
2013-04-16 07:15:00,72.1,67.5,-100.00,SW,225,1.0,2.0,85,0.00,,,0.00,995.0,meteohub,2013-04-16 17:15:00,
2013-04-16 07:20:00,72.5,67.8,-100.00,SW,225,0.0,2.0,85,0.00,,,0.00,995.0,meteohub,2013-04-16 17:20:00,
2013-04-16 07:25:00,72.7,67.8,-100.00,SW,225,0.0,2.0,85,0.00,,,0.00,995.0,meteohub,2013-04-16 17:25:00,
2013-04-16 07:30:00,72.9,68.0,-100.00,SW,225,0.0,2.0,85,0.00,,,0.00,995.0,meteohub,2013-04-16 17:30:00,
2013-04-16 07:35:00,73.0,68.5,-100.00,North,0,2.0,2.0,86,0.00,,,0.00,995.0,meteohub,2013-04-16 17:35:00,
2013-04-16 07:40:00,73.4,68.9,-100.00,North,0,2.0,2.0,86,0.00,,,0.00,995.0,meteohub,2013-04-16 17:40:00,
2013-04-16 07:46:00,73.8,69.3,-100.00,North,0,2.0,2.0,86,0.00,,,0.00,995.0,meteohub,2013-04-16 17:46:00,
2013-04-16 07:51:00,74.1,69.6,-100.00,North,0,2.0,2.0,86,0.00,,,0.00,995.0,meteohub,2013-04-16 17:51:00,
2013-04-16 07:56:00,74.5,69.6,-100.00,North,0,2.0,3.0,85,0.00,,,0.00,995.0,meteohub,2013-04-16 17:56:00,
2013-04-16 08:01:00,74.7,69.8,-100.00,North,0,2.0,3.0,85,0.00,,,0.00,995.0,meteohub,2013-04-16 18:01:00,
2013-04-16 08:06:00,74.7,69.4,-100.00,North,0,2.0,3.0,84,0.00,,,0.00,995.0,meteohub,2013-04-16 18:06:00,
2013-04-16 08:12:00,74.8,69.6,-100.00,North,0,2.0,3.0,84,0.00,,,0.00,995.0,meteohub,2013-04-16 18:12:00,
2013-04-16 08:17:00,74.8,70.0,-100.00,North,0,2.0,3.0,85,0.00,,,0.00,995.0,meteohub,2013-04-16 18:17:00,
2013-04-16 08:22:00,74.8,70.0,-100.00,North,0,2.0,3.0,85,0.00,,,0.00,995.0,meteohub,2013-04-16 18:22:00,
2013-04-16 08:27:00,74.8,70.0,-100.00,NE,45,2.0,3.0,85,0.00,,,0.00,995.0,meteohub,2013-04-16 18:27:00,
2013-04-16 08:32:00,74.8,70.3,-100.00,NE,45,2.0,3.0,86,0.00,,,0.00,995.0,meteohub,2013-04-16 18:32:00,
2013-04-16 08:37:00,75.0,70.5,-100.00,North,0,1.0,3.0,86,0.00,,,0.00,995.0,meteohub,2013-04-16 18:37:00,
2013-04-16 08:42:00,75.0,70.5,-100.00,NE,45,2.0,3.0,86,0.00,,,0.00,995.0,meteohub,2013-04-16 18:42:00,
2013-04-16 08:48:00,75.2,70.7,-100.00,North,0,3.0,3.0,86,0.00,,,0.00,995.0,meteohub,2013-04-16 18:48:00,
2013-04-16 08:53:00,75.4,70.9,-100.00,North,0,4.0,4.0,86,0.00,,,0.00,995.0,meteohub,2013-04-16 18:53:00,
2013-04-16 08:58:00,75.7,70.9,-100.00,North,0,3.0,4.0,85,0.00,,,0.00,995.0,meteohub,2013-04-16 18:58:00,
2013-04-16 09:03:00,75.9,71.1,-100.00,NE,45,3.0,4.0,85,0.00,,,0.00,995.0,meteohub,2013-04-16 19:03:00,
2013-04-16 09:08:00,76.3,71.1,-100.00,NW,315,2.0,4.0,84,0.00,,,0.00,995.0,meteohub,2013-04-16 19:08:00,
2013-04-16 09:13:00,76.6,71.1,-100.00,North,0,2.0,4.0,83,0.00,,,0.00,995.0,meteohub,2013-04-16 19:13:00,
2013-04-16 09:19:00,77.0,71.1,-100.00,NW,315,2.0,4.0,82,0.00,,,0.00,995.0,meteohub,2013-04-16 19:19:00,
2013-04-16 09:24:00,77.4,71.4,-100.00,NE,45,4.0,4.0,82,0.00,,,0.00,995.0,meteohub,2013-04-16 19:24:00,
2013-04-16 09:30:00,77.5,70.9,-100.00,NE,45,2.0,4.0,80,0.00,,,0.00,995.0,meteohub,2013-04-16 19:30:00,
2013-04-16 09:35:00,77.5,70.9,-100.00,North,0,5.0,5.0,80,0.00,,,0.00,995.0,meteohub,2013-04-16 19:35:00,
2013-04-16 09:40:00,77.5,70.5,-100.00,North,0,4.0,6.0,79,0.00,,,0.00,995.0,meteohub,2013-04-16 19:40:00,
2013-04-16 09:45:00,77.5,70.5,-100.00,North,0,4.0,6.0,79,0.00,,,0.00,995.0,meteohub,2013-04-16 19:45:00,
2013-04-16 09:50:00,77.5,70.2,-100.00,North,0,1.0,6.0,78,0.00,,,0.00,995.0,meteohub,2013-04-16 19:50:00,
2013-04-16 09:55:00,77.5,70.2,-100.00,NW,315,3.0,5.0,78,0.00,,,0.00,995.0,meteohub,2013-04-16 19:55:00,
2013-04-16 10:00:00,77.9,70.5,-100.00,East,90,3.0,5.0,78,0.00,,,0.00,995.0,meteohub,2013-04-16 20:00:00,
2013-04-16 10:05:00,77.9,70.2,-100.00,NW,315,4.0,5.0,77,0.00,,,0.00,995.0,meteohub,2013-04-16 20:05:00,
2013-04-16 10:10:00,78.1,70.3,-100.00,NE,45,2.0,5.0,77,0.00,,,0.00,995.0,meteohub,2013-04-16 20:10:00,
2013-04-16 10:16:00,78.3,70.0,-100.00,East,90,4.0,5.0,76,0.00,,,0.00,995.0,meteohub,2013-04-16 20:16:00,
2013-04-16 10:22:00,78.6,70.3,-100.00,East,90,5.0,5.0,76,0.00,,,0.00,995.0,meteohub,2013-04-16 20:22:00,
2013-04-16 10:27:00,79.2,70.9,-100.00,NE,45,4.0,5.0,76,0.00,,,0.00,995.0,meteohub,2013-04-16 20:27:00,
2013-04-16 10:32:00,79.3,71.1,-100.00,East,90,5.0,5.0,76,0.00,,,0.00,995.0,meteohub,2013-04-16 20:32:00,
2013-04-16 10:37:00,79.9,71.2,-100.00,NE,45,4.0,7.0,75,0.00,,,0.00,995.0,meteohub,2013-04-16 20:37:00,
2013-04-16 10:42:00,80.2,70.9,-100.00,SE,135,6.0,7.0,73,0.00,,,0.00,995.0,meteohub,2013-04-16 20:42:00,
2013-04-16 10:47:00,80.4,70.2,-100.00,NE,45,5.0,7.0,71,0.00,,,0.00,995.0,meteohub,2013-04-16 20:47:00,
2013-04-16 10:52:00,80.8,70.5,-100.00,North,0,4.0,7.0,71,0.00,,,0.00,995.0,meteohub,2013-04-16 20:52:00,
2013-04-16 10:57:00,81.1,70.3,-100.00,North,0,5.0,8.0,70,0.00,,,0.00,995.0,meteohub,2013-04-16 20:57:00,
2013-04-16 11:02:00,81.5,70.7,-100.00,NE,45,5.0,8.0,70,0.00,,,0.00,995.0,meteohub,2013-04-16 21:02:00,
2013-04-16 11:07:00,81.9,70.7,-100.00,NW,315,5.0,9.0,69,0.00,,,0.00,995.0,meteohub,2013-04-16 21:07:00,
2013-04-16 11:12:00,81.5,70.3,-100.00,NE,45,8.0,9.0,69,0.00,,,0.00,995.0,meteohub,2013-04-16 21:12:00,
2013-04-16 11:17:00,81.1,70.0,-100.00,NW,315,6.0,9.0,69,0.00,,,0.00,995.0,meteohub,2013-04-16 21:17:00,
2013-04-16 11:22:00,80.6,70.0,-100.00,East,90,4.0,8.0,70,0.00,,,0.00,995.0,meteohub,2013-04-16 21:22:00,
2013-04-16 11:27:00,80.8,70.2,-100.00,North,0,5.0,8.0,70,0.00,,,0.00,995.0,meteohub,2013-04-16 21:27:00,
2013-04-16 11:32:00,81.1,70.3,-100.00,North,0,4.0,8.0,70,0.00,,,0.00,995.0,meteohub,2013-04-16 21:32:00,
2013-04-16 11:37:00,81.1,70.0,-100.00,NE,45,5.0,8.0,69,0.00,,,0.00,995.0,meteohub,2013-04-16 21:37:00,
2013-04-16 11:42:00,81.0,70.2,-100.00,North,0,7.0,8.0,70,0.00,,,0.00,995.0,meteohub,2013-04-16 21:42:00,
2013-04-16 11:47:00,81.0,70.7,-100.00,East,90,4.0,8.0,71,0.00,,,0.00,995.0,meteohub,2013-04-16 21:47:00,
2013-04-16 11:53:00,81.1,70.0,-100.00,North,0,4.0,8.0,69,0.00,,,0.00,995.0,meteohub,2013-04-16 21:53:00,
2013-04-16 11:58:00,81.9,71.1,-100.00,North,0,5.0,8.0,70,0.00,,,0.00,995.0,meteohub,2013-04-16 21:58:00,
2013-04-16 12:03:00,82.8,71.6,-100.00,NE,45,5.0,6.0,69,0.00,,,0.00,995.0,meteohub,2013-04-16 22:03:00,
2013-04-16 12:08:00,83.7,71.1,-100.00,North,0,6.0,6.0,66,0.00,,,0.00,995.0,meteohub,2013-04-16 22:08:00,
2013-04-16 12:13:00,83.7,70.7,-100.00,East,90,5.0,6.0,65,0.00,,,0.00,995.0,meteohub,2013-04-16 22:13:00,
2013-04-16 12:18:00,84.4,71.8,-100.00,North,0,4.0,7.0,66,0.00,,,0.00,995.0,meteohub,2013-04-16 22:18:00,
2013-04-16 12:23:00,84.7,71.6,-100.00,North,0,4.0,7.0,65,0.00,,,0.00,995.0,meteohub,2013-04-16 22:23:00,
2013-04-16 12:29:00,84.9,71.4,-100.00,NE,45,7.0,8.0,64,0.00,,,0.00,995.0,meteohub,2013-04-16 22:29:00,
2013-04-16 12:34:00,85.6,72.5,-100.00,NE,45,4.0,8.0,65,0.00,,,0.00,995.0,meteohub,2013-04-16 22:34:00,
2013-04-16 12:39:00,86.0,72.3,-100.00,NE,45,4.0,8.0,64,0.00,,,0.00,995.0,meteohub,2013-04-16 22:39:00,
2013-04-16 12:44:00,86.4,72.3,-100.00,NNE,23,7.0,7.0,63,0.00,,,0.00,995.0,meteohub,2013-04-16 22:44:00,
2013-04-16 12:49:00,86.2,72.1,-100.00,North,0,4.0,7.0,63,0.00,,,0.00,995.0,meteohub,2013-04-16 22:49:00,
2013-04-16 12:54:00,86.4,71.8,-100.00,SE,135,4.0,8.0,62,0.00,,,0.00,995.0,meteohub,2013-04-16 22:54:00,
2013-04-16 13:00:00,86.9,72.3,-100.00,North,0,5.0,8.0,62,0.00,,,0.00,995.0,meteohub,2013-04-16 23:00:00,
2013-04-16 13:05:00,86.7,72.1,-100.00,North,0,6.0,7.0,62,0.00,,,0.00,995.0,meteohub,2013-04-16 23:05:00,
2013-04-16 13:10:00,86.5,72.5,-100.00,East,90,4.0,7.0,63,0.00,,,0.00,995.0,meteohub,2013-04-16 23:10:00,
2013-04-16 13:15:00,86.5,72.5,-100.00,East,90,6.0,7.0,63,0.00,,,0.00,995.0,meteohub,2013-04-16 23:15:00,
2013-04-16 13:20:00,86.7,72.7,-100.00,WNW,293,5.0,8.0,63,0.00,,,0.00,995.0,meteohub,2013-04-16 23:20:00,
2013-04-16 13:25:00,87.3,73.0,-100.00,NE,45,4.0,8.0,63,0.00,,,0.00,995.0,meteohub,2013-04-16 23:25:00,
2013-04-16 13:30:00,87.4,72.3,-100.00,NE,45,7.0,8.0,61,0.00,,,0.00,995.0,meteohub,2013-04-16 23:30:00,
2013-04-16 13:35:00,86.5,72.0,-100.00,NW,315,4.0,8.0,62,0.00,,,0.00,995.0,meteohub,2013-04-16 23:35:00,
2013-04-16 13:41:00,86.9,72.3,-100.00,North,0,5.0,8.0,62,0.00,,,0.00,995.0,meteohub,2013-04-16 23:41:00,
2013-04-16 13:46:00,87.4,72.3,-100.00,NE,45,5.0,7.0,61,0.00,,,0.00,995.0,meteohub,2013-04-16 23:46:00,
2013-04-16 13:51:00,87.4,71.8,-100.00,North,0,8.0,8.0,60,0.00,,,0.00,995.0,meteohub,2013-04-16 23:51:00,
2013-04-16 13:56:00,86.4,70.9,-100.00,NE,45,4.0,8.0,60,0.00,,,0.00,995.0,meteohub,2013-04-16 23:56:00,
2013-04-16 14:01:00,85.6,71.1,-100.00,NE,45,5.0,8.0,62,0.00,,,0.00,995.0,meteohub,2013-04-17 00:01:00,
2013-04-16 14:06:00,85.8,71.8,-100.00,NE,45,6.0,8.0,63,0.00,,,0.00,995.0,meteohub,2013-04-17 00:06:00,
2013-04-16 14:11:00,86.0,71.4,-100.00,NE,45,7.0,8.0,62,0.00,,,0.00,995.0,meteohub,2013-04-17 00:11:00,
2013-04-16 14:16:00,86.4,71.8,-100.00,North,0,6.0,8.0,62,0.00,,,0.00,995.0,meteohub,2013-04-17 00:16:00,
2013-04-16 14:21:00,85.8,71.8,-100.00,NE,45,8.0,8.0,63,0.00,,,0.00,995.0,meteohub,2013-04-17 00:21:00,
2013-04-16 14:27:00,84.7,71.6,-100.00,North,0,6.0,8.0,65,0.00,,,0.00,995.0,meteohub,2013-04-17 00:27:00,
2013-04-16 14:32:00,83.8,71.8,-100.00,North,0,8.0,8.0,67,0.00,,,0.00,995.0,meteohub,2013-04-17 00:32:00,
2013-04-16 14:37:00,83.1,71.1,-100.00,North,0,8.0,8.0,67,0.00,,,0.00,959.0,meteohub,2013-04-17 00:37:00,
2013-04-16 14:42:00,82.8,71.1,-100.00,North,0,7.0,8.0,68,0.00,,,0.00,959.0,meteohub,2013-04-17 00:42:00,
2013-04-16 14:47:00,82.2,71.1,-100.00,NNE,23,4.0,8.0,69,0.00,,,0.00,959.0,meteohub,2013-04-17 00:47:00,
2013-04-16 14:52:00,82.0,70.9,-100.00,North,0,5.0,8.0,69,0.00,,,0.00,959.0,meteohub,2013-04-17 00:52:00,
2013-04-16 14:57:00,82.2,71.4,-100.00,East,90,8.0,8.0,70,0.00,,,0.00,959.0,meteohub,2013-04-17 00:57:00,
2013-04-16 15:02:00,82.4,71.2,-100.00,NW,315,5.0,8.0,69,0.00,,,0.00,959.0,meteohub,2013-04-17 01:02:00,
2013-04-16 15:07:00,82.4,71.2,-100.00,North,0,5.0,8.0,69,0.00,,,0.00,958.0,meteohub,2013-04-17 01:07:00,
2013-04-16 15:12:00,82.9,71.8,-100.00,East,90,4.0,8.0,69,0.00,,,0.00,958.0,meteohub,2013-04-17 01:12:00,
2013-04-16 15:17:00,83.8,72.1,-100.00,North,0,4.0,8.0,68,0.00,,,0.00,958.0,meteohub,2013-04-17 01:17:00,
2013-04-16 15:22:00,84.9,72.7,-100.00,North,0,8.0,8.0,67,0.00,,,0.00,958.0,meteohub,2013-04-17 01:22:00,
2013-04-16 15:27:00,85.3,72.1,-100.00,North,0,5.0,8.0,65,0.00,,,0.00,958.0,meteohub,2013-04-17 01:27:00,
2013-04-16 15:32:00,85.5,72.0,-100.00,North,0,8.0,8.0,64,0.00,,,0.00,958.0,meteohub,2013-04-17 01:32:00,
2013-04-16 15:37:00,85.1,72.0,-100.00,NE,45,5.0,9.0,65,0.00,,,0.00,995.0,meteohub,2013-04-17 01:37:00,
2013-04-16 15:42:00,85.6,72.1,-100.00,North,0,6.0,9.0,64,0.00,,,0.00,995.0,meteohub,2013-04-17 01:42:00,
2013-04-16 15:47:00,85.3,71.8,-100.00,NE,45,7.0,9.0,64,0.00,,,0.00,995.0,meteohub,2013-04-17 01:47:00,
2013-04-16 15:52:00,84.6,71.1,-100.00,East,90,6.0,8.0,64,0.00,,,0.00,995.0,meteohub,2013-04-17 01:52:00,
2013-04-16 15:57:00,83.7,70.7,-100.00,NE,45,4.0,8.0,65,0.00,,,0.00,995.0,meteohub,2013-04-17 01:57:00,
2013-04-16 16:02:00,83.1,70.5,-100.00,NE,45,4.0,7.0,66,0.00,,,0.00,995.0,meteohub,2013-04-17 02:02:00,
2013-04-16 16:07:00,82.9,70.9,-100.00,NE,45,4.0,7.0,67,0.00,,,0.00,995.0,meteohub,2013-04-17 02:07:00,
2013-04-16 16:12:00,83.1,70.5,-100.00,North,0,4.0,7.0,66,0.00,,,0.00,995.0,meteohub,2013-04-17 02:12:00,
2013-04-16 16:17:00,83.1,70.5,-100.00,West,270,6.0,7.0,66,0.00,,,0.00,995.0,meteohub,2013-04-17 02:17:00,
2013-04-16 16:22:00,83.5,70.9,-100.00,North,0,5.0,7.0,66,0.00,,,0.00,995.0,meteohub,2013-04-17 02:22:00,
2013-04-16 16:27:00,84.4,71.8,-100.00,NE,45,7.0,7.0,66,0.00,,,0.00,995.0,meteohub,2013-04-17 02:27:00,
2013-04-16 16:32:00,85.1,72.5,-100.00,North,0,3.0,7.0,66,0.00,,,0.00,995.0,meteohub,2013-04-17 02:32:00,
2013-04-16 16:37:00,85.5,72.3,-100.00,NE,45,7.0,7.0,65,0.00,,,0.00,995.0,meteohub,2013-04-17 02:37:00,
2013-04-16 16:42:00,85.6,72.1,-100.00,North,0,5.0,7.0,64,0.00,,,0.00,995.0,meteohub,2013-04-17 02:42:00,
2013-04-16 16:47:00,84.6,71.1,-100.00,NE,45,5.0,7.0,64,0.00,,,0.00,995.0,meteohub,2013-04-17 02:47:00,
2013-04-16 16:52:00,83.5,70.5,-100.00,NE,45,7.0,8.0,65,0.00,,,0.00,995.0,meteohub,2013-04-17 02:52:00,
2013-04-16 16:57:00,82.6,70.0,-100.00,North,0,3.0,8.0,66,0.00,,,0.00,995.0,meteohub,2013-04-17 02:57:00,
2013-04-16 17:02:00,82.4,70.3,-100.00,North,0,4.0,8.0,67,0.00,,,0.00,995.0,meteohub,2013-04-17 03:02:00,
2013-04-16 17:07:00,82.2,69.8,-100.00,NE,45,3.0,7.0,66,0.00,,,0.00,995.0,meteohub,2013-04-17 03:07:00,
2013-04-16 17:12:00,81.7,69.3,-100.00,North,0,4.0,6.0,66,0.00,,,0.00,995.0,meteohub,2013-04-17 03:12:00,
2013-04-16 17:17:00,81.9,69.8,-100.00,NE,45,3.0,6.0,67,0.00,,,0.00,995.0,meteohub,2013-04-17 03:17:00,
2013-04-16 17:22:00,82.2,70.2,-100.00,SW,225,2.0,5.0,67,0.00,,,0.00,995.0,meteohub,2013-04-17 03:22:00,
2013-04-16 17:27:00,83.3,70.7,-100.00,NE,45,5.0,5.0,66,0.00,,,0.00,995.0,meteohub,2013-04-17 03:27:00,
2013-04-16 17:32:00,84.0,70.5,-100.00,NE,45,4.0,5.0,64,0.00,,,0.00,995.0,meteohub,2013-04-17 03:32:00,
2013-04-16 17:37:00,84.6,70.5,-100.00,NE,45,2.0,5.0,63,0.00,,,0.00,995.0,meteohub,2013-04-17 03:37:00,
2013-04-16 17:42:00,84.2,70.2,-100.00,North,0,4.0,5.0,63,0.00,,,0.00,995.0,meteohub,2013-04-17 03:42:00,
2013-04-16 17:47:00,84.0,70.0,-100.00,NE,45,3.0,4.0,63,0.00,,,0.00,995.0,meteohub,2013-04-17 03:47:00,
2013-04-16 17:52:00,83.8,70.0,-100.00,North,0,3.0,4.0,63,0.00,,,0.00,995.0,meteohub,2013-04-17 03:52:00,
2013-04-16 17:57:00,83.8,69.4,-100.00,North,0,4.0,5.0,62,0.00,,,0.00,995.0,meteohub,2013-04-17 03:57:00,
2013-04-16 18:00:00,83.8,70.0,-100.00,NW,315,4.0,5.0,63,0.00,,,0.00,995.0,meteohub,2013-04-17 04:00:00,
2013-04-16 18:01:00,83.8,70.0,-100.00,East,90,4.0,5.0,63,0.00,,,0.00,995.0,meteohub,2013-04-17 04:01:00,
2013-04-16 18:02:00,83.8,70.0,-100.00,NE,45,3.0,5.0,63,0.00,,,0.00,995.0,meteohub,2013-04-17 04:02:00,
2013-04-16 18:04:00,83.7,69.8,-100.00,NW,315,4.0,5.0,63,0.00,,,0.00,995.0,meteohub,2013-04-17 04:04:00,
2013-04-16 18:10:00,83.7,69.8,-100.00,North,0,3.0,5.0,63,0.00,,,0.00,995.0,meteohub,2013-04-17 04:10:00,
2013-04-16 18:15:00,83.7,70.2,-100.00,NE,45,2.0,5.0,64,0.00,,,0.00,995.0,meteohub,2013-04-17 04:15:00,
2013-04-16 18:20:00,83.3,70.3,-100.00,NE,45,3.0,4.0,65,0.00,,,0.00,995.0,meteohub,2013-04-17 04:20:00,
2013-04-16 18:25:00,82.6,70.0,-100.00,North,0,3.0,4.0,66,0.00,,,0.00,995.0,meteohub,2013-04-17 04:25:00,
2013-04-16 18:31:00,81.9,70.3,-100.00,NNE,23,2.0,4.0,68,0.00,,,0.00,995.0,meteohub,2013-04-17 04:31:00,
2013-04-16 18:37:00,81.1,70.0,-100.00,West,270,2.0,4.0,69,0.00,,,0.00,995.0,meteohub,2013-04-17 04:37:00,
2013-04-16 18:42:00,80.6,70.0,-100.00,North,0,2.0,4.0,70,0.00,,,0.00,995.0,meteohub,2013-04-17 04:42:00,
2013-04-16 18:47:00,79.9,69.3,-100.00,NE,45,2.0,4.0,70,0.00,,,0.00,995.0,meteohub,2013-04-17 04:47:00,
2013-04-16 18:52:00,79.5,69.3,-100.00,North,0,1.0,4.0,71,0.00,,,0.00,995.0,meteohub,2013-04-17 04:52:00,
2013-04-16 18:57:00,79.2,69.3,-100.00,NE,45,1.0,4.0,72,0.00,,,0.00,995.0,meteohub,2013-04-17 04:57:00,
2013-04-16 19:02:00,78.8,69.4,-100.00,NE,45,1.0,3.0,73,0.00,,,0.00,995.0,meteohub,2013-04-17 05:02:00,
2013-04-16 19:07:00,78.6,69.3,-100.00,NE,45,0.0,2.0,73,0.00,,,0.00,995.0,meteohub,2013-04-17 05:07:00,
2013-04-16 19:12:00,78.4,69.4,-100.00,NE,45,0.0,2.0,74,0.00,,,0.00,995.0,meteohub,2013-04-17 05:12:00,
2013-04-16 19:17:00,78.1,69.4,-100.00,NE,45,0.0,2.0,75,0.00,,,0.00,995.0,meteohub,2013-04-17 05:17:00,
2013-04-16 19:22:00,77.9,69.3,-100.00,NE,45,0.0,1.0,75,0.00,,,0.00,995.0,meteohub,2013-04-17 05:22:00,
2013-04-16 19:27:00,77.9,69.3,-100.00,NE,45,0.0,1.0,75,0.00,,,0.00,995.0,meteohub,2013-04-17 05:27:00,
2013-04-16 19:32:00,77.9,69.3,-100.00,NE,45,2.0,0.0,75,0.00,,,0.00,995.0,meteohub,2013-04-17 05:32:00,
2013-04-16 19:37:00,77.7,68.7,-100.00,SW,225,2.0,2.0,74,0.00,,,0.00,995.0,meteohub,2013-04-17 05:37:00,
2013-04-16 19:42:00,77.4,68.4,-100.00,SW,225,1.0,2.0,74,0.00,,,0.00,995.0,meteohub,2013-04-17 05:42:00,
2013-04-16 19:47:00,77.2,68.2,-100.00,West,270,1.0,2.0,74,0.00,,,0.00,995.0,meteohub,2013-04-17 05:47:00,
2013-04-16 19:52:00,77.0,68.0,-100.00,SW,225,3.0,3.0,74,0.00,,,0.00,995.0,meteohub,2013-04-17 05:52:00,
2013-04-16 19:57:00,77.0,68.5,-100.00,SW,225,1.0,3.0,75,0.00,,,0.00,995.0,meteohub,2013-04-17 05:57:00,
2013-04-16 20:02:00,76.8,68.4,-100.00,SW,225,2.0,3.0,75,0.00,,,0.00,995.0,meteohub,2013-04-17 06:02:00,
2013-04-16 20:07:00,76.6,68.2,-100.00,SW,225,3.0,3.0,75,0.00,,,0.00,995.0,meteohub,2013-04-17 06:07:00,
2013-04-16 20:12:00,76.5,68.0,-100.00,West,270,2.0,3.0,75,0.00,,,0.00,995.0,meteohub,2013-04-17 06:12:00,
2013-04-16 20:17:00,76.3,67.8,-100.00,SW,225,1.0,3.0,75,0.00,,,0.00,995.0,meteohub,2013-04-17 06:17:00,
2013-04-16 20:22:00,76.1,68.0,-100.00,SW,225,1.0,3.0,76,0.00,,,0.00,995.0,meteohub,2013-04-17 06:22:00,
2013-04-16 20:27:00,75.9,67.8,-100.00,SW,225,1.0,3.0,76,0.00,,,0.00,995.0,meteohub,2013-04-17 06:27:00,
2013-04-16 20:32:00,75.9,67.8,-100.00,SW,225,2.0,2.0,76,0.00,,,0.00,995.0,meteohub,2013-04-17 06:32:00,
2013-04-16 20:37:00,75.7,67.6,-100.00,SW,225,2.0,2.0,76,0.00,,,0.00,995.0,meteohub,2013-04-17 06:37:00,
2013-04-16 20:42:00,75.9,67.8,-100.00,SW,225,2.0,3.0,76,0.00,,,0.00,995.0,meteohub,2013-04-17 06:42:00,
2013-04-16 20:47:00,76.1,68.4,-100.00,SW,225,2.0,3.0,77,0.00,,,0.00,995.0,meteohub,2013-04-17 06:47:00,
2013-04-16 20:52:00,75.9,68.2,-100.00,SW,225,1.0,3.0,77,0.00,,,0.00,995.0,meteohub,2013-04-17 06:52:00,
2013-04-16 20:57:00,75.9,67.8,-100.00,SW,225,1.0,2.0,76,0.00,,,0.00,995.0,meteohub,2013-04-17 06:57:00,
2013-04-16 21:02:00,75.9,67.8,-100.00,SW,225,1.0,2.0,76,0.00,,,0.00,995.0,meteohub,2013-04-17 07:02:00,
2013-04-16 21:07:00,75.9,67.8,-100.00,SW,225,1.0,2.0,76,0.00,,,0.00,995.0,meteohub,2013-04-17 07:07:00,
2013-04-16 21:12:00,75.4,67.6,-100.00,SW,225,2.0,2.0,77,0.00,,,0.00,995.0,meteohub,2013-04-17 07:12:00,
2013-04-16 21:17:00,75.4,67.6,-100.00,SW,225,2.0,2.0,77,0.00,,,0.00,995.0,meteohub,2013-04-17 07:17:00,
2013-04-16 21:22:00,75.4,67.3,-100.00,SW,225,1.0,2.0,76,0.00,,,0.00,995.0,meteohub,2013-04-17 07:22:00,
2013-04-16 21:27:00,75.2,67.1,-100.00,SW,225,0.0,2.0,76,0.00,,,0.00,995.0,meteohub,2013-04-17 07:27:00,
2013-04-16 21:32:00,75.0,66.6,-100.00,SW,225,1.0,2.0,75,0.00,,,0.00,995.0,meteohub,2013-04-17 07:32:00,
2013-04-16 21:37:00,74.8,66.7,-100.00,SW,225,2.0,2.0,76,0.00,,,0.00,995.0,meteohub,2013-04-17 07:37:00,
2013-04-16 21:42:00,74.3,66.6,-100.00,SW,225,2.0,2.0,77,0.00,,,0.00,995.0,meteohub,2013-04-17 07:42:00,
2013-04-16 21:47:00,74.3,66.9,-100.00,SW,225,0.0,2.0,78,0.00,,,0.00,995.0,meteohub,2013-04-17 07:47:00,
2013-04-16 21:52:00,74.1,67.1,-100.00,SW,225,2.0,2.0,79,0.00,,,0.00,995.0,meteohub,2013-04-17 07:52:00,
2013-04-16 21:57:00,74.3,67.6,-100.00,SW,225,2.0,2.0,80,0.00,,,0.00,995.0,meteohub,2013-04-17 07:57:00,
2013-04-16 22:02:00,74.3,67.6,-100.00,SW,225,0.0,2.0,80,0.00,,,0.00,995.0,meteohub,2013-04-17 08:02:00,
2013-04-16 22:07:00,74.1,67.1,-100.00,SW,225,2.0,2.0,79,0.00,,,0.00,995.0,meteohub,2013-04-17 08:07:00,
2013-04-16 22:12:00,73.9,67.1,-100.00,SW,225,3.0,3.0,79,0.00,,,0.00,995.0,meteohub,2013-04-17 08:12:00,
2013-04-16 22:17:00,73.9,67.1,-100.00,SW,225,2.0,3.0,79,0.00,,,0.00,995.0,meteohub,2013-04-17 08:17:00,
2013-04-16 22:22:00,73.9,67.1,-100.00,SW,225,2.0,3.0,79,0.00,,,0.00,995.0,meteohub,2013-04-17 08:22:00,
2013-04-16 22:27:00,73.9,67.1,-100.00,SW,225,1.0,3.0,79,0.00,,,0.00,995.0,meteohub,2013-04-17 08:27:00,
2013-04-16 22:33:00,73.6,66.7,-100.00,SW,225,0.0,2.0,79,0.00,,,0.00,995.0,meteohub,2013-04-17 08:33:00,
2013-04-16 22:38:00,73.2,66.4,-100.00,SW,225,1.0,2.0,79,0.00,,,0.00,995.0,meteohub,2013-04-17 08:38:00,
2013-04-16 22:43:00,73.2,66.7,-100.00,SW,225,0.0,1.0,80,0.00,,,0.00,995.0,meteohub,2013-04-17 08:43:00,
2013-04-16 22:48:00,73.0,66.9,-100.00,SW,225,1.0,2.0,81,0.00,,,0.00,995.0,meteohub,2013-04-17 08:48:00,
2013-04-16 22:53:00,73.0,66.9,-100.00,SW,225,1.0,2.0,81,0.00,,,0.00,995.0,meteohub,2013-04-17 08:53:00,
2013-04-16 22:58:00,73.0,67.3,-100.00,SW,225,2.0,2.0,82,0.00,,,0.00,995.0,meteohub,2013-04-17 08:58:00,
2013-04-16 23:03:00,73.0,67.3,-100.00,SW,225,1.0,3.0,82,0.00,,,0.00,995.0,meteohub,2013-04-17 09:03:00,
2013-04-16 23:08:00,73.0,67.3,-100.00,SW,225,1.0,3.0,82,0.00,,,0.00,995.0,meteohub,2013-04-17 09:08:00,
2013-04-16 23:13:00,72.5,66.7,-100.00,SW,225,2.0,3.0,82,0.00,,,0.00,995.0,meteohub,2013-04-17 09:13:00,
2013-04-16 23:19:00,72.3,66.9,-100.00,SW,225,0.0,2.0,83,0.00,,,0.00,995.0,meteohub,2013-04-17 09:19:00,
2013-04-16 23:24:00,72.3,66.9,-100.00,SW,225,2.0,2.0,83,0.00,,,0.00,995.0,meteohub,2013-04-17 09:24:00,
2013-04-16 23:29:00,72.1,66.7,-100.00,SW,225,1.0,2.0,83,0.00,,,0.00,995.0,meteohub,2013-04-17 09:29:00,
2013-04-16 23:34:00,72.1,66.7,-100.00,SW,225,2.0,2.0,83,0.00,,,0.00,995.0,meteohub,2013-04-17 09:34:00,
2013-04-16 23:39:00,72.1,66.7,-100.00,SW,225,0.0,2.0,83,0.00,,,0.00,995.0,meteohub,2013-04-17 09:39:00,
2013-04-16 23:44:00,72.1,66.4,-100.00,SW,225,0.0,2.0,82,0.00,,,0.00,995.0,meteohub,2013-04-17 09:44:00,
2013-04-16 23:49:00,71.8,66.0,-100.00,SW,225,1.0,2.0,82,0.00,,,0.00,995.0,meteohub,2013-04-17 09:49:00,
2013-04-16 23:55:00,71.8,66.4,-100.00,SW,225,0.0,2.0,83,0.00,,,0.00,995.0,meteohub,2013-04-17 09:55:00,